sensor_id;sensor_type;location;lat;lon;timestamp;pressure;altitude;pressure_sealevel;temperature;humidity
56944;BME280;42848;42.524;12.052;2023-12-07T00:01:08;96537.81;;;3.87;100.00
56944;BME280;42848;42.524;12.052;2023-12-07T00:03:34;96538.31;;;3.89;100.00
56944;BME280;42848;42.524;12.052;2023-12-07T00:05:59;96542.84;;;3.93;100.00
56944;BME280;42848;42.524;12.052;2023-12-07T00:08:25;96543.38;;;3.95;100.00
56944;BME280;42848;42.524;12.052;2023-12-07T00:10:51;96546.25;;;4.04;100.00
56944;BME280;42848;42.524;12.052;2023-12-07T00:13:16;96554.84;;;4.01;100.00
56944;BME280;42848;42.524;12.052;2023-12-07T00:15:42;96547.88;;;4.00;100.00
56944;BME280;42848;42.524;12.052;2023-12-07T00:18:08;96541.44;;;4.01;100.00
56944;BME280;42848;42.524;12.052;2023-12-07T00:20:33;96543.56;;;4.04;100.00
56944;BME280;42848;42.524;12.052;2023-12-07T00:22:59;96540.34;;;4.02;100.00
56944;BME280;42848;42.524;12.052;2023-12-07T00:25:25;96545.97;;;4.06;100.00
56944;BME280;42848;42.524;12.052;2023-12-07T00:27:51;96543.28;;;4.06;100.00
56944;BME280;42848;42.524;12.052;2023-12-07T00:30:17;96542.19;;;4.07;100.00
56944;BME280;42848;42.524;12.052;2023-12-07T00:32:43;96550.16;;;4.17;100.00
56944;BME280;42848;42.524;12.052;2023-12-07T00:35:10;96547.28;;;4.08;100.00
56944;BME280;42848;42.524;12.052;2023-12-07T00:37:36;96543.56;;;4.04;100.00
56944;BME280;42848;42.524;12.052;2023-12-07T00:40:02;96546.28;;;3.99;100.00
56944;BME280;42848;42.524;12.052;2023-12-07T00:42:29;96544.66;;;4.03;100.00
56944;BME280;42848;42.524;12.052;2023-12-07T00:44:55;96541.09;;;4.08;100.00
56944;BME280;42848;42.524;12.052;2023-12-07T00:47:21;96543.00;;;4.07;100.00
56944;BME280;42848;42.524;12.052;2023-12-07T00:49:47;96547.38;;;3.98;100.00
56944;BME280;42848;42.524;12.052;2023-12-07T00:52:13;96547.88;;;4.00;100.00
56944;BME280;42848;42.524;12.052;2023-12-07T00:54:39;96551.97;;;3.92;100.00
56944;BME280;42848;42.524;12.052;2023-12-07T00:57:05;96552.84;;;3.83;100.00
56944;BME280;42848;42.524;12.052;2023-12-07T00:59:31;96546.94;;;3.86;100.00
56944;BME280;42848;42.524;12.052;2023-12-07T01:02:06;96545.88;;;3.82;100.00
56944;BME280;42848;42.524;12.052;2023-12-07T01:04:32;96548.53;;;3.87;100.00
56944;BME280;42848;42.524;12.052;2023-12-07T01:06:59;96544.19;;;3.91;100.00
56944;BME280;42848;42.524;12.052;2023-12-07T01:09:25;96552.53;;;3.89;100.00
56944;BME280;42848;42.524;12.052;2023-12-07T01:11:51;96543.09;;;3.97;100.00
56944;BME280;42848;42.524;12.052;2023-12-07T01:14:18;96549.47;;;4.01;100.00
56944;BME280;42848;42.524;12.052;2023-12-07T01:16:44;96541.41;;;4.06;100.00
56944;BME280;42848;42.524;12.052;2023-12-07T01:19:11;96552.63;;;4.13;100.00
56944;BME280;42848;42.524;12.052;2023-12-07T01:21:40;96551.06;;;4.02;100.00
56944;BME280;42848;42.524;12.052;2023-12-07T01:24:07;96550.56;;;4.00;100.00
56944;BME280;42848;42.524;12.052;2023-12-07T01:26:33;96545.69;;;4.07;100.00
56944;BME280;42848;42.524;12.052;2023-12-07T01:28:58;96550.72;;;4.14;100.00
56944;BME280;42848;42.524;12.052;2023-12-07T01:31:24;96553.50;;;4.04;100.00
56944;BME280;42848;42.524;12.052;2023-12-07T01:33:50;96553.13;;;3.86;100.00
56944;BME280;42848;42.524;12.052;2023-12-07T01:36:15;96549.09;;;3.84;100.00
56944;BME280;42848;42.524;12.052;2023-12-07T01:38:41;96549.72;;;3.76;100.00
56944;BME280;42848;42.524;12.052;2023-12-07T01:41:09;96553.44;;;3.80;100.00
56944;BME280;42848;42.524;12.052;2023-12-07T01:43:34;96551.91;;;3.68;100.00
56944;BME280;42848;42.524;12.052;2023-12-07T01:46:00;96546.75;;;3.72;100.00
56944;BME280;42848;42.524;12.052;2023-12-07T01:48:27;96549.66;;;3.81;100.00
56944;BME280;42848;42.524;12.052;2023-12-07T01:50:55;96551.97;;;3.58;100.00
56944;BME280;42848;42.524;12.052;2023-12-07T01:53:24;96551.84;;;3.74;100.00
56944;BME280;42848;42.524;12.052;2023-12-07T01:55:52;96563.97;;;3.71;100.00
56944;BME280;42848;42.524;12.052;2023-12-07T01:58:19;96567.84;;;3.89;100.00
56944;BME280;42848;42.524;12.052;2023-12-07T02:00:47;96566.81;;;3.85;100.00
56944;BME280;42848;42.524;12.052;2023-12-07T02:03:13;96569.94;;;3.97;100.00
56944;BME280;42848;42.524;12.052;2023-12-07T02:05:46;96569.44;;;3.90;100.00
56944;BME280;42848;42.524;12.052;2023-12-07T02:08:13;96566.97;;;3.98;100.00
56944;BME280;42848;42.524;12.052;2023-12-07T02:10:39;96561.03;;;4.02;100.00
56944;BME280;42848;42.524;12.052;2023-12-07T02:13:06;96569.88;;;4.02;100.00
56944;BME280;42848;42.524;12.052;2023-12-07T02:15:32;96575.75;;;4.09;100.00
56944;BME280;42848;42.524;12.052;2023-12-07T02:21:10;96569.75;;;4.17;100.00
56944;BME280;42848;42.524;12.052;2023-12-07T02:23:28;96574.09;;;4.13;100.00
56944;BME280;42848;42.524;12.052;2023-12-07T02:25:54;96564.88;;;4.24;100.00
56944;BME280;42848;42.524;12.052;2023-12-07T02:28:22;96574.00;;;4.23;100.00
56944;BME280;42848;42.524;12.052;2023-12-07T02:30:48;96577.78;;;4.22;100.00
56944;BME280;42848;42.524;12.052;2023-12-07T02:33:14;96577.31;;;4.15;100.00
56944;BME280;42848;42.524;12.052;2023-12-07T02:35:42;96582.72;;;4.10;100.00
56944;BME280;42848;42.524;12.052;2023-12-07T02:38:09;96578.41;;;4.14;100.00
56944;BME280;42848;42.524;12.052;2023-12-07T02:40:35;96576.78;;;4.13;100.00
56944;BME280;42848;42.524;12.052;2023-12-07T02:43:03;96571.88;;;4.20;100.00
56944;BME280;42848;42.524;12.052;2023-12-07T02:45:29;96576.72;;;4.18;100.00
56944;BME280;42848;42.524;12.052;2023-12-07T02:47:57;96572.97;;;4.19;100.00
56944;BME280;42848;42.524;12.052;2023-12-07T02:50:24;96572.63;;;4.26;100.00
56944;BME280;42848;42.524;12.052;2023-12-07T02:52:49;96576.22;;;4.16;100.00
56944;BME280;42848;42.524;12.052;2023-12-07T02:55:15;96574.00;;;4.23;100.00
56944;BME280;42848;42.524;12.052;2023-12-07T02:57:41;96585.78;;;4.27;100.00
56944;BME280;42848;42.524;12.052;2023-12-07T03:00:07;96586.84;;;4.32;100.00
56944;BME280;42848;42.524;12.052;2023-12-07T03:02:38;96581.78;;;4.25;100.00
56944;BME280;42848;42.524;12.052;2023-12-07T03:05:05;96583.16;;;4.22;100.00
56944;BME280;42848;42.524;12.052;2023-12-07T03:07:31;96582.91;;;4.19;100.00
56944;BME280;42848;42.524;12.052;2023-12-07T03:09:56;96595.03;;;4.16;100.00
56944;BME280;42848;42.524;12.052;2023-12-07T03:12:22;96593.44;;;4.15;100.00
56944;BME280;42848;42.524;12.052;2023-12-07T03:14:49;96603.13;;;4.11;100.00
56944;BME280;42848;42.524;12.052;2023-12-07T03:17:15;96605.78;;;4.11;100.00
56944;BME280;42848;42.524;12.052;2023-12-07T03:19:41;96609.25;;;4.17;100.00
56944;BME280;42848;42.524;12.052;2023-12-07T03:22:07;96603.06;;;4.21;100.00
56944;BME280;42848;42.524;12.052;2023-12-07T03:24:37;96614.25;;;4.28;100.00
56944;BME280;42848;42.524;12.052;2023-12-07T03:27:04;96618.47;;;4.40;100.00
56944;BME280;42848;42.524;12.052;2023-12-07T03:29:32;96613.13;;;4.35;100.00
56944;BME280;42848;42.524;12.052;2023-12-07T03:31:58;96622.75;;;4.41;100.00
56944;BME280;42848;42.524;12.052;2023-12-07T03:34:24;96620.06;;;4.41;100.00
56944;BME280;42848;42.524;12.052;2023-12-07T03:36:50;96616.34;;;4.37;100.00
56944;BME280;42848;42.524;12.052;2023-12-07T03:39:16;96612.56;;;4.38;100.00
56944;BME280;42848;42.524;12.052;2023-12-07T03:41:48;96614.69;;;4.41;100.00
56944;BME280;42848;42.524;12.052;2023-12-07T03:44:15;96619.53;;;4.39;100.00
56944;BME280;42848;42.524;12.052;2023-12-07T03:46:41;96619.22;;;4.45;100.00
56944;BME280;42848;42.524;12.052;2023-12-07T03:49:06;96623.19;;;4.53;100.00
56944;BME280;42848;42.524;12.052;2023-12-07T03:51:32;96619.91;;;4.56;100.00
56944;BME280;42848;42.524;12.052;2023-12-07T03:53:58;96622.34;;;4.57;100.00
56944;BME280;42848;42.524;12.052;2023-12-07T03:56:30;96627.16;;;4.61;100.00
56944;BME280;42848;42.524;12.052;2023-12-07T03:58:57;96627.94;;;4.61;100.00
56944;BME280;42848;42.524;12.052;2023-12-07T04:01:26;96623.47;;;4.51;100.00
56944;BME280;42848;42.524;12.052;2023-12-07T04:03:53;96624.84;;;4.49;100.00
56944;BME280;42848;42.524;12.052;2023-12-07T04:06:23;96632.03;;;4.53;100.00
56944;BME280;42848;42.524;12.052;2023-12-07T04:08:50;96636.78;;;4.67;100.00
56944;BME280;42848;42.524;12.052;2023-12-07T04:11:16;96644.88;;;4.62;100.00
56944;BME280;42848;42.524;12.052;2023-12-07T04:13:43;96646.31;;;3.81;100.00
56944;BME280;42848;42.524;12.052;2023-12-07T04:16:09;96645.94;;;3.97;100.00
56944;BME280;42848;42.524;12.052;2023-12-07T04:18:36;96644.41;;;4.20;100.00
56944;BME280;42848;42.524;12.052;2023-12-07T04:21:02;96638.38;;;4.05;100.00
56944;BME280;42848;42.524;12.052;2023-12-07T04:23:28;96639.16;;;4.05;100.00
56944;BME280;42848;42.524;12.052;2023-12-07T04:25:54;96640.19;;;4.14;100.00
56944;BME280;42848;42.524;12.052;2023-12-07T04:28:19;96642.34;;;4.12;100.00
56944;BME280;42848;42.524;12.052;2023-12-07T04:30:45;96644.06;;;3.98;100.00
56944;BME280;42848;42.524;12.052;2023-12-07T04:33:10;96648.31;;;4.04;100.00
56944;BME280;42848;42.524;12.052;2023-12-07T04:35:36;96651.44;;;4.16;100.00
56944;BME280;42848;42.524;12.052;2023-12-07T04:38:02;96648.75;;;4.16;100.00
56944;BME280;42848;42.524;12.052;2023-12-07T04:40:27;96651.22;;;4.13;100.00
56944;BME280;42848;42.524;12.052;2023-12-07T04:42:53;96652.53;;;4.15;100.00
56944;BME280;42848;42.524;12.052;2023-12-07T04:45:19;96655.72;;;4.17;100.00
56944;BME280;42848;42.524;12.052;2023-12-07T04:47:45;96655.22;;;4.10;100.00
56944;BME280;42848;42.524;12.052;2023-12-07T04:50:12;96656.53;;;3.74;100.00
56944;BME280;42848;42.524;12.052;2023-12-07T04:52:37;96667.97;;;3.50;100.00
56944;BME280;42848;42.524;12.052;2023-12-07T04:55:04;96658.66;;;3.82;100.00
56944;BME280;42848;42.524;12.052;2023-12-07T04:57:35;96666.53;;;3.63;100.00
56944;BME280;42848;42.524;12.052;2023-12-07T05:00:05;96669.88;;;3.94;100.00
56944;BME280;42848;42.524;12.052;2023-12-07T05:02:35;96670.94;;;3.93;100.00
56944;BME280;42848;42.524;12.052;2023-12-07T05:05:01;96666.69;;;3.87;100.00
56944;BME280;42848;42.524;12.052;2023-12-07T05:07:27;96673.59;;;3.93;100.00
56944;BME280;42848;42.524;12.052;2023-12-07T05:09:53;96670.09;;;3.97;100.00
56944;BME280;42848;42.524;12.052;2023-12-07T05:12:18;96676.19;;;3.69;100.00
56944;BME280;42848;42.524;12.052;2023-12-07T05:14:44;96678.81;;;3.74;100.00
56944;BME280;42848;42.524;12.052;2023-12-07T05:17:09;96679.53;;;3.90;100.00
56944;BME280;42848;42.524;12.052;2023-12-07T05:19:35;96682.84;;;3.77;100.00
56944;BME280;42848;42.524;12.052;2023-12-07T05:22:01;96684.47;;;3.78;100.00
56944;BME280;42848;42.524;12.052;2023-12-07T05:24:27;96686.59;;;3.81;100.00
56944;BME280;42848;42.524;12.052;2023-12-07T05:26:53;96692.47;;;3.83;100.00
56944;BME280;42848;42.524;12.052;2023-12-07T05:29:19;96691.81;;;3.57;100.00
56944;BME280;42848;42.524;12.052;2023-12-07T05:31:44;96708.69;;;3.67;100.00
56944;BME280;42848;42.524;12.052;2023-12-07T05:34:10;96711.75;;;3.40;100.00
56944;BME280;42848;42.524;12.052;2023-12-07T05:36:36;96718.19;;;3.34;100.00
56944;BME280;42848;42.524;12.052;2023-12-07T05:39:02;96717.31;;;3.59;100.00
56944;BME280;42848;42.524;12.052;2023-12-07T05:41:28;96725.44;;;3.39;100.00
56944;BME280;42848;42.524;12.052;2023-12-07T05:43:54;96716.31;;;3.40;100.00
56944;BME280;42848;42.524;12.052;2023-12-07T05:46:20;96715.78;;;3.33;100.00
56944;BME280;42848;42.524;12.052;2023-12-07T05:48:46;96730.81;;;3.34;100.00
56944;BME280;42848;42.524;12.052;2023-12-07T05:51:16;96732.09;;;3.47;100.00
56944;BME280;42848;42.524;12.052;2023-12-07T05:53:43;96727.47;;;3.62;100.00
56944;BME280;42848;42.524;12.052;2023-12-07T05:56:10;96723.69;;;3.68;100.00
56944;BME280;42848;42.524;12.052;2023-12-07T05:58:37;96741.69;;;3.63;100.00
56944;BME280;42848;42.524;12.052;2023-12-07T06:01:03;96736.09;;;3.59;100.00
56944;BME280;42848;42.524;12.052;2023-12-07T06:03:29;96730.19;;;3.57;100.00
56944;BME280;42848;42.524;12.052;2023-12-07T06:05:55;96738.81;;;3.49;100.00
56944;BME280;42848;42.524;12.052;2023-12-07T06:08:22;96730.22;;;3.47;100.00
56944;BME280;42848;42.524;12.052;2023-12-07T06:10:48;96736.16;;;3.39;100.00
56944;BME280;42848;42.524;12.052;2023-12-07T06:13:14;96739.66;;;3.34;100.00
56944;BME280;42848;42.524;12.052;2023-12-07T06:15:40;96732.72;;;3.23;100.00
56944;BME280;42848;42.524;12.052;2023-12-07T06:18:06;96740.50;;;3.30;100.00
56944;BME280;42848;42.524;12.052;2023-12-07T06:20:32;96741.56;;;3.19;100.00
56944;BME280;42848;42.524;12.052;2023-12-07T06:22:59;96744.53;;;3.22;100.00
56944;BME280;42848;42.524;12.052;2023-12-07T06:25:25;96741.06;;;3.01;100.00
56944;BME280;42848;42.524;12.052;2023-12-07T06:27:50;96748.88;;;2.93;100.00
56944;BME280;42848;42.524;12.052;2023-12-07T06:30:16;96745.91;;;3.04;100.00
56944;BME280;42848;42.524;12.052;2023-12-07T06:32:42;96757.09;;;3.32;100.00
56944;BME280;42848;42.524;12.052;2023-12-07T06:35:10;96750.16;;;3.10;100.00
56944;BME280;42848;42.524;12.052;2023-12-07T06:37:37;96750.50;;;2.83;100.00
56944;BME280;42848;42.524;12.052;2023-12-07T06:40:03;96756.06;;;3.07;100.00
56944;BME280;42848;42.524;12.052;2023-12-07T06:42:30;96763.56;;;3.16;100.00
56944;BME280;42848;42.524;12.052;2023-12-07T06:44:55;96759.84;;;2.91;100.00
56944;BME280;42848;42.524;12.052;2023-12-07T06:47:21;96762.00;;;2.89;100.00
56944;BME280;42848;42.524;12.052;2023-12-07T06:49:46;96766.31;;;2.85;100.00
56944;BME280;42848;42.524;12.052;2023-12-07T06:52:12;96764.69;;;2.79;100.00
56944;BME280;42848;42.524;12.052;2023-12-07T06:54:38;96773.25;;;2.71;100.00
56944;BME280;42848;42.524;12.052;2023-12-07T06:57:06;96769.78;;;2.75;100.00
56944;BME280;42848;42.524;12.052;2023-12-07T06:59:34;96776.22;;;2.95;100.00
56944;BME280;42848;42.524;12.052;2023-12-07T07:02:01;96771.88;;;3.09;100.00
56944;BME280;42848;42.524;12.052;2023-12-07T07:04:26;96778.88;;;3.05;100.00
56944;BME280;42848;42.524;12.052;2023-12-07T07:06:52;96784.50;;;3.13;100.00
56944;BME280;42848;42.524;12.052;2023-12-07T07:09:18;96787.16;;;3.19;100.00
56944;BME280;42848;42.524;12.052;2023-12-07T07:11:50;96797.94;;;2.93;100.00
56944;BME280;42848;42.524;12.052;2023-12-07T07:14:16;96797.63;;;3.10;100.00
56944;BME280;42848;42.524;12.052;2023-12-07T07:16:42;96797.91;;;2.98;100.00
56944;BME280;42848;42.524;12.052;2023-12-07T07:19:07;96790.41;;;2.95;100.00
56944;BME280;42848;42.524;12.052;2023-12-07T07:21:33;96794.97;;;2.95;100.00
56944;BME280;42848;42.524;12.052;2023-12-07T07:23:59;96796.03;;;3.24;100.00
56944;BME280;42848;42.524;12.052;2023-12-07T07:26:25;96805.72;;;2.84;100.00
56944;BME280;42848;42.524;12.052;2023-12-07T07:28:54;96799.53;;;2.74;100.00
56944;BME280;42848;42.524;12.052;2023-12-07T07:31:19;96800.59;;;2.58;100.00
56944;BME280;42848;42.524;12.052;2023-12-07T07:33:45;96796.03;;;2.89;100.00
56944;BME280;42848;42.524;12.052;2023-12-07T07:36:15;96797.94;;;3.03;100.00
56944;BME280;42848;42.524;12.052;2023-12-07T07:38:41;96791.47;;;3.09;100.00
56944;BME280;42848;42.524;12.052;2023-12-07T07:41:07;96795.78;;;2.95;100.00
56944;BME280;42848;42.524;12.052;2023-12-07T07:43:33;96790.94;;;3.12;100.00
56944;BME280;42848;42.524;12.052;2023-12-07T07:46:00;96797.91;;;3.24;100.00
56944;BME280;42848;42.524;12.052;2023-12-07T07:48:26;96806.22;;;3.22;100.00
56944;BME280;42848;42.524;12.052;2023-12-07T07:50:52;96796.84;;;3.14;100.00
56944;BME280;42848;42.524;12.052;2023-12-07T07:53:17;96810.22;;;3.40;100.00
56944;BME280;42848;42.524;12.052;2023-12-07T07:55:43;96810.75;;;3.27;100.00
56944;BME280;42848;42.524;12.052;2023-12-07T07:58:09;96812.38;;;3.23;100.00
56944;BME280;42848;42.524;12.052;2023-12-07T08:00:34;96816.41;;;3.15;100.00
56944;BME280;42848;42.524;12.052;2023-12-07T08:03:00;96818.81;;;3.17;100.00
56944;BME280;42848;42.524;12.052;2023-12-07T08:05:26;96825.81;;;3.07;100.00
56944;BME280;42848;42.524;12.052;2023-12-07T08:07:51;96825.53;;;3.14;100.00
56944;BME280;42848;42.524;12.052;2023-12-07T08:10:17;96825.78;;;3.18;100.00
56944;BME280;42848;42.524;12.052;2023-12-07T08:12:43;96826.88;;;2.91;100.00
56944;BME280;42848;42.524;12.052;2023-12-07T08:15:11;96826.81;;;2.45;100.00
56944;BME280;42848;42.524;12.052;2023-12-07T08:17:40;96834.38;;;3.09;100.00
56944;BME280;42848;42.524;12.052;2023-12-07T08:20:10;96838.13;;;3.39;100.00
56944;BME280;42848;42.524;12.052;2023-12-07T08:22:37;96843.50;;;3.34;100.00
56944;BME280;42848;42.524;12.052;2023-12-07T08:25:03;96841.88;;;3.43;100.00
56944;BME280;42848;42.524;12.052;2023-12-07T08:27:33;96846.47;;;3.07;100.00
56944;BME280;42848;42.524;12.052;2023-12-07T08:30:00;96851.00;;;3.37;100.00
56944;BME280;42848;42.524;12.052;2023-12-07T08:32:26;96853.66;;;3.37;100.00
56944;BME280;42848;42.524;12.052;2023-12-07T08:34:52;96857.41;;;3.61;100.00
56944;BME280;42848;42.524;12.052;2023-12-07T08:37:18;96860.66;;;3.33;100.00
56944;BME280;42848;42.524;12.052;2023-12-07T08:39:44;96858.50;;;3.35;100.00
56944;BME280;42848;42.524;12.052;2023-12-07T08:42:10;96859.28;;;3.46;100.00
56944;BME280;42848;42.524;12.052;2023-12-07T08:44:35;96860.13;;;3.31;100.00
56944;BME280;42848;42.524;12.052;2023-12-07T08:47:01;96862.81;;;3.16;100.00
56944;BME280;42848;42.524;12.052;2023-12-07T08:49:28;96856.91;;;3.13;100.00
56944;BME280;42848;42.524;12.052;2023-12-07T08:51:53;96860.69;;;3.23;100.00
56944;BME280;42848;42.524;12.052;2023-12-07T08:54:19;96861.38;;;3.74;100.00
56944;BME280;42848;42.524;12.052;2023-12-07T08:56:45;96861.69;;;3.67;100.00
56944;BME280;42848;42.524;12.052;2023-12-07T08:59:11;96869.19;;;3.70;100.00
56944;BME280;42848;42.524;12.052;2023-12-07T09:01:37;96864.06;;;3.79;100.00
56944;BME280;42848;42.524;12.052;2023-12-07T09:04:02;96868.59;;;3.89;100.00
56944;BME280;42848;42.524;12.052;2023-12-07T09:06:29;96872.38;;;3.83;100.00
56944;BME280;42848;42.524;12.052;2023-12-07T09:08:55;96877.00;;;3.47;100.00
56944;BME280;42848;42.524;12.052;2023-12-07T09:11:21;96880.78;;;3.25;100.00
56944;BME280;42848;42.524;12.052;2023-12-07T09:13:46;96883.19;;;3.17;100.00
56944;BME280;42848;42.524;12.052;2023-12-07T09:16:12;96882.38;;;3.47;100.00
56944;BME280;42848;42.524;12.052;2023-12-07T09:18:38;96895.28;;;3.39;100.00
56944;BME280;42848;42.524;12.052;2023-12-07T09:21:04;96892.28;;;3.66;100.00
56944;BME280;42848;42.524;12.052;2023-12-07T09:23:31;96893.34;;;3.65;100.00
56944;BME280;42848;42.524;12.052;2023-12-07T09:25:57;96892.25;;;3.87;100.00
56944;BME280;42848;42.524;12.052;2023-12-07T09:28:22;96896.59;;;3.52;100.00
56944;BME280;42848;42.524;12.052;2023-12-07T09:30:49;96894.41;;;3.85;100.00
56944;BME280;42848;42.524;12.052;2023-12-07T09:33:14;96903.97;;;4.11;100.00
56944;BME280;42848;42.524;12.052;2023-12-07T09:35:40;96889.19;;;4.19;100.00
56944;BME280;42848;42.524;12.052;2023-12-07T09:38:06;96893.69;;;4.28;100.00
56944;BME280;42848;42.524;12.052;2023-12-07T09:40:32;96894.78;;;4.33;100.00
56944;BME280;42848;42.524;12.052;2023-12-07T09:42:58;96896.34;;;4.44;100.00
56944;BME280;42848;42.524;12.052;2023-12-07T09:45:24;96901.72;;;4.44;100.00
56944;BME280;42848;42.524;12.052;2023-12-07T09:47:51;96900.06;;;4.53;100.00
56944;BME280;42848;42.524;12.052;2023-12-07T09:50:18;96890.59;;;4.61;100.00
56944;BME280;42848;42.524;12.052;2023-12-07T09:52:47;96889.50;;;4.67;100.00
56944;BME280;42848;42.524;12.052;2023-12-07T09:55:19;96884.88;;;4.77;100.00
56944;BME280;42848;42.524;12.052;2023-12-07T09:57:46;96885.38;;;4.79;100.00
56944;BME280;42848;42.524;12.052;2023-12-07T10:00:12;96880.03;;;4.74;100.00
56944;BME280;42848;42.524;12.052;2023-12-07T10:02:41;96890.41;;;4.91;100.00
56944;BME280;42848;42.524;12.052;2023-12-07T10:05:09;96883.94;;;4.97;100.00
56944;BME280;42848;42.524;12.052;2023-12-07T10:07:39;96886.25;;;5.09;100.00
56944;BME280;42848;42.524;12.052;2023-12-07T10:10:05;96885.78;;;5.02;100.00
56944;BME280;42848;42.524;12.052;2023-12-07T10:12:32;96883.84;;;5.12;100.00
56944;BME280;42848;42.524;12.052;2023-12-07T10:15:01;96881.84;;;5.23;100.00
56944;BME280;42848;42.524;12.052;2023-12-07T10:17:56;96890.28;;;5.11;100.00
56944;BME280;42848;42.524;12.052;2023-12-07T10:20:27;96886.75;;;5.16;100.00
56944;BME280;42848;42.524;12.052;2023-12-07T10:23:07;96888.03;;;5.24;100.00
56944;BME280;42848;42.524;12.052;2023-12-07T10:25:41;96886.72;;;5.21;100.00
56944;BME280;42848;42.524;12.052;2023-12-07T10:28:08;96880.88;;;5.09;100.00
56944;BME280;42848;42.524;12.052;2023-12-07T10:30:40;96878.69;;;5.11;100.00
56944;BME280;42848;42.524;12.052;2023-12-07T10:33:07;96883.63;;;5.04;100.00
56944;BME280;42848;42.524;12.052;2023-12-07T10:35:33;96886.22;;;5.14;100.00
56944;BME280;42848;42.524;12.052;2023-12-07T10:38:03;96890.84;;;5.08;100.00
56944;BME280;42848;42.524;12.052;2023-12-07T10:40:29;96886.44;;;5.23;100.00
56944;BME280;42848;42.524;12.052;2023-12-07T10:42:57;96878.59;;;5.26;100.00
56944;BME280;42848;42.524;12.052;2023-12-07T10:45:29;96890.25;;;5.17;100.00
56944;BME280;42848;42.524;12.052;2023-12-07T10:48:02;96884.50;;;5.28;100.00
56944;BME280;42848;42.524;12.052;2023-12-07T10:50:35;96885.50;;;5.37;100.00
56944;BME280;42848;42.524;12.052;2023-12-07T10:53:09;96884.41;;;5.38;100.00
56944;BME280;42848;42.524;12.052;2023-12-07T10:55:45;96880.22;;;5.56;100.00
56944;BME280;42848;42.524;12.052;2023-12-07T10:58:14;96880.31;;;5.46;100.00
56944;BME280;42848;42.524;12.052;2023-12-07T11:00:42;96876.78;;;5.51;100.00
56944;BME280;42848;42.524;12.052;2023-12-07T11:03:17;96869.19;;;5.58;100.00
56944;BME280;42848;42.524;12.052;2023-12-07T11:05:46;96869.59;;;5.70;100.00
56944;BME280;42848;42.524;12.052;2023-12-07T11:08:31;96853.91;;;5.77;100.00
56944;BME280;42848;42.524;12.052;2023-12-07T11:11:20;96855.44;;;5.83;100.00
56944;BME280;42848;42.524;12.052;2023-12-07T11:14:05;96856.47;;;5.87;100.00
56944;BME280;42848;42.524;12.052;2023-12-07T11:16:35;96850.84;;;5.84;100.00
56944;BME280;42848;42.524;12.052;2023-12-07T11:19:01;96851.06;;;5.92;100.00
56944;BME280;42848;42.524;12.052;2023-12-07T11:21:27;96848.53;;;6.01;100.00
56944;BME280;42848;42.524;12.052;2023-12-07T11:23:54;96849.00;;;6.08;100.00
56944;BME280;42848;42.524;12.052;2023-12-07T11:26:22;96838.25;;;6.27;100.00
56944;BME280;42848;42.524;12.052;2023-12-07T11:28:48;96834.72;;;6.50;100.00
56944;BME280;42848;42.524;12.052;2023-12-07T11:31:14;96831.88;;;6.42;100.00
56944;BME280;42848;42.524;12.052;2023-12-07T11:33:41;96838.75;;;6.29;100.00
56944;BME280;42848;42.524;12.052;2023-12-07T11:36:09;96832.09;;;6.45;100.00
56944;BME280;42848;42.524;12.052;2023-12-07T11:38:36;96839.72;;;6.76;100.00
56944;BME280;42848;42.524;12.052;2023-12-07T11:41:02;96837.84;;;6.57;100.00
56944;BME280;42848;42.524;12.052;2023-12-07T11:46:20;96833.84;;;6.74;100.00
56944;BME280;42848;42.524;12.052;2023-12-07T11:48:48;96828.22;;;6.70;100.00
56944;BME280;42848;42.524;12.052;2023-12-07T11:51:16;96823.28;;;6.59;100.00
56944;BME280;42848;42.524;12.052;2023-12-07T11:53:41;96823.34;;;6.53;100.00
56944;BME280;42848;42.524;12.052;2023-12-07T11:56:09;96821.16;;;6.55;100.00
56944;BME280;42848;42.524;12.052;2023-12-07T11:58:36;96819.34;;;6.70;100.00
56944;BME280;42848;42.524;12.052;2023-12-07T12:01:03;96820.06;;;6.56;100.00
56944;BME280;42848;42.524;12.052;2023-12-07T12:03:31;96810.38;;;6.55;100.00
56944;BME280;42848;42.524;12.052;2023-12-07T12:06:03;96806.81;;;6.60;100.00
56944;BME280;42848;42.524;12.052;2023-12-07T12:08:31;96810.06;;;6.57;100.00
56944;BME280;42848;42.524;12.052;2023-12-07T12:10:57;96806.00;;;6.60;100.00
56944;BME280;42848;42.524;12.052;2023-12-07T12:13:30;96822.47;;;6.77;100.00
56944;BME280;42848;42.524;12.052;2023-12-07T12:15:57;96816.66;;;6.70;100.00
56944;BME280;42848;42.524;12.052;2023-12-07T12:18:23;96812.84;;;6.71;100.00
56944;BME280;42848;42.524;12.052;2023-12-07T12:20:52;96815.78;;;7.07;100.00
56944;BME280;42848;42.524;12.052;2023-12-07T12:23:18;96811.53;;;7.20;100.00
56944;BME280;42848;42.524;12.052;2023-12-07T12:25:44;96813.56;;;6.95;100.00
56944;BME280;42848;42.524;12.052;2023-12-07T12:28:10;96800.41;;;7.07;100.00
56944;BME280;42848;42.524;12.052;2023-12-07T12:30:37;96796.34;;;6.91;100.00
56944;BME280;42848;42.524;12.052;2023-12-07T12:33:03;96793.31;;;6.79;100.00
56944;BME280;42848;42.524;12.052;2023-12-07T12:35:29;96791.56;;;7.02;100.00
56944;BME280;42848;42.524;12.052;2023-12-07T12:37:55;96787.75;;;6.89;100.00
56944;BME280;42848;42.524;12.052;2023-12-07T12:40:22;96788.69;;;6.98;100.00
56944;BME280;42848;42.524;12.052;2023-12-07T12:42:52;96778.75;;;6.94;100.00
56944;BME280;42848;42.524;12.052;2023-12-07T12:45:19;96785.19;;;6.98;100.00
56944;BME280;42848;42.524;12.052;2023-12-07T12:47:46;96784.53;;;7.20;100.00
56944;BME280;42848;42.524;12.052;2023-12-07T12:53:03;96797.47;;;7.23;100.00
56944;BME280;42848;42.524;12.052;2023-12-07T12:55:46;96800.22;;;7.18;100.00
56944;BME280;42848;42.524;12.052;2023-12-07T12:58:12;96796.22;;;7.15;100.00